Time,TemperatureF,DewpointF,PressureIn,WindDirection,WindDirectionDegrees,WindSpeedMPH,WindSpeedGustMPH,Humidity,HourlyPrecipIn,Conditions,Clouds,dailyrainin,SolarRadiationWatts/m^2,SoftwareType,DateUTC
2013-11-04 00:01:00,47.3,43.0,29.88,NNW,338,1.1,0.0,85,0.00,CLR,,0.22,0.0,WeatherDisplay:10.37,2013-11-03 23:01:00,
2013-11-04 00:06:00,47.3,43.0,29.85,WNW,292,2.3,2.3,85,0.00,CLR,,0.22,0.0,WeatherDisplay:10.37,2013-11-03 23:06:00,
2013-11-04 00:11:00,47.1,42.8,29.85,WNW,292,0.0,0.0,85,0.00,CLR,,0.22,0.0,WeatherDisplay:10.37,2013-11-03 23:11:00,
2013-11-04 00:16:00,47.1,42.8,29.85,NNW,338,2.3,2.3,85,0.00,CLR,,0.22,0.0,WeatherDisplay:10.37,2013-11-03 23:16:00,
2013-11-04 00:21:00,46.9,42.7,29.88,NNW,338,0.0,0.0,85,0.00,CLR,,0.22,0.0,WeatherDisplay:10.37,2013-11-03 23:21:00,
2013-11-04 00:26:00,46.9,42.7,29.88,NNW,338,3.5,3.5,85,0.00,CLR,,0.22,0.0,WeatherDisplay:10.37,2013-11-03 23:26:00,
2013-11-04 00:31:00,46.9,42.4,29.88,NNE,22,2.3,2.3,84,0.00,CLR,,0.22,0.0,WeatherDisplay:10.37,2013-11-03 23:31:00,
2013-11-04 00:36:00,47.1,42.2,29.88,WNW,292,3.5,3.5,83,0.00,CLR,,0.22,0.0,WeatherDisplay:10.37,2013-11-03 23:36:00,
2013-11-04 00:41:00,47.3,42.4,29.88,WNW,292,1.1,1.1,83,0.00,CLR,,0.22,0.0,WeatherDisplay:10.37,2013-11-03 23:41:00,
2013-11-04 00:46:00,47.3,42.7,29.88,NNW,338,2.3,2.3,84,0.00,CLR,,0.22,0.0,WeatherDisplay:10.37,2013-11-03 23:46:00,
2013-11-04 00:51:00,47.3,42.4,29.94,NW,315,2.4,2.4,83,0.00,CLR,,0.22,0.0,WeatherDisplay:10.37,2013-11-03 23:51:00,
2013-11-04 00:56:00,47.3,42.4,29.94,WNW,292,3.1,3.1,83,0.00,CLR,,0.22,0.0,WeatherDisplay:10.37,2013-11-03 23:56:00,
2013-11-04 01:01:00,47.3,42.4,29.94,WNW,292,2.3,2.3,83,0.00,CLR,,0.22,0.0,WeatherDisplay:10.37,2013-11-04 00:01:00,
2013-11-04 01:06:00,47.3,42.4,29.91,West,270,2.3,2.3,83,0.00,CLR,,0.22,0.0,WeatherDisplay:10.37,2013-11-04 00:06:00,
2013-11-04 01:11:00,47.1,42.5,29.91,WNW,292,2.9,2.9,84,0.00,CLR,,0.22,0.0,WeatherDisplay:10.37,2013-11-04 00:11:00,
2013-11-04 01:16:00,47.1,42.2,29.91,WNW,292,2.3,2.3,83,0.00,CLR,,0.22,0.0,WeatherDisplay:10.37,2013-11-04 00:16:00,
2013-11-04 01:21:00,47.1,42.2,29.94,West,270,2.3,2.3,83,0.00,CLR,,0.22,0.0,WeatherDisplay:10.37,2013-11-04 00:21:00,
2013-11-04 01:26:00,46.9,42.0,29.94,WSW,248,0.0,0.0,83,0.00,CLR,,0.22,0.0,WeatherDisplay:10.37,2013-11-04 00:26:00,
2013-11-04 01:31:00,46.9,42.4,29.94,WSW,248,0.0,0.0,84,0.00,CLR,,0.22,0.0,WeatherDisplay:10.37,2013-11-04 00:31:00,
2013-11-04 01:36:00,46.8,42.2,29.91,NW,315,1.1,1.1,84,0.00,CLR,,0.22,0.0,WeatherDisplay:10.37,2013-11-04 00:36:00,
2013-11-04 01:41:00,46.6,42.0,29.91,NW,315,0.0,0.0,84,0.00,CLR,,0.22,0.0,WeatherDisplay:10.37,2013-11-04 00:41:00,
2013-11-04 01:46:00,46.2,42.0,29.91,NW,315,1.1,1.1,85,0.00,CLR,,0.22,0.0,WeatherDisplay:10.37,2013-11-04 00:46:00,
2013-11-04 01:51:00,45.9,41.6,29.91,NE,45,0.0,0.0,85,0.00,CLR,,0.22,0.0,WeatherDisplay:10.37,2013-11-04 00:51:00,
2013-11-04 01:56:00,45.5,41.3,29.91,NE,45,0.0,0.0,85,0.00,CLR,,0.22,0.0,WeatherDisplay:10.37,2013-11-04 00:56:00,
2013-11-04 02:01:00,45.3,41.1,29.91,NNW,338,0.0,0.0,85,0.00,CLR,,0.22,0.0,WeatherDisplay:10.37,2013-11-04 01:01:00,
2013-11-04 02:06:00,44.8,40.8,29.91,North,0,0.0,0.0,86,0.00,CLR,,0.22,0.0,WeatherDisplay:10.37,2013-11-04 01:06:00,
2013-11-04 02:11:00,44.4,40.8,29.91,North,0,0.0,0.0,87,0.00,CLR,,0.22,0.0,WeatherDisplay:10.37,2013-11-04 01:11:00,
2013-11-04 02:16:00,44.2,40.6,29.91,NNW,338,0.0,0.0,87,0.00,CLR,,0.22,0.0,WeatherDisplay:10.37,2013-11-04 01:16:00,
2013-11-04 02:21:00,43.9,40.3,29.91,NNW,338,0.0,0.0,87,0.00,CLR,,0.22,0.0,WeatherDisplay:10.37,2013-11-04 01:21:00,
2013-11-04 02:26:00,43.7,40.1,29.91,NNW,338,0.0,0.0,87,0.00,CLR,,0.22,0.0,WeatherDisplay:10.37,2013-11-04 01:26:00,
2013-11-04 02:31:00,43.7,40.4,29.91,WSW,248,0.0,0.0,88,0.00,CLR,,0.22,0.0,WeatherDisplay:10.37,2013-11-04 01:31:00,
2013-11-04 02:36:00,43.5,40.5,29.91,WSW,248,0.0,0.0,89,0.00,CLR,,0.22,0.0,WeatherDisplay:10.37,2013-11-04 01:36:00,
2013-11-04 02:41:00,43.5,40.8,29.91,WSW,248,0.0,0.0,90,0.00,CLR,,0.22,0.0,WeatherDisplay:10.37,2013-11-04 01:41:00,
2013-11-04 02:46:00,43.3,40.6,29.91,WSW,248,0.0,0.0,90,0.00,CLR,,0.22,0.0,WeatherDisplay:10.37,2013-11-04 01:46:00,
2013-11-04 02:51:00,43.3,40.6,29.91,WSW,248,0.0,0.0,90,0.00,CLR,,0.22,0.0,WeatherDisplay:10.37,2013-11-04 01:51:00,
2013-11-04 02:56:00,43.3,40.9,29.91,WSW,248,1.4,1.4,91,0.00,CLR,,0.22,0.0,WeatherDisplay:10.37,2013-11-04 01:56:00,
2013-11-04 03:01:00,43.3,41.2,29.91,WSW,248,2.6,2.6,92,0.00,CLR,,0.22,0.0,WeatherDisplay:10.37,2013-11-04 02:01:00,
2013-11-04 03:06:00,43.7,41.8,29.91,WSW,248,2.4,2.4,93,0.00,CLR,,0.22,0.0,WeatherDisplay:10.37,2013-11-04 02:06:00,
2013-11-04 03:11:00,43.7,41.8,29.91,WSW,248,2.3,2.3,93,0.00,CLR,,0.22,0.0,WeatherDisplay:10.37,2013-11-04 02:11:00,
2013-11-04 03:16:00,43.7,41.8,29.91,West,270,1.1,0.0,93,0.00,CLR,,0.22,0.0,WeatherDisplay:10.37,2013-11-04 02:16:00,
2013-11-04 03:21:00,43.9,42.0,29.91,WSW,248,0.0,0.0,93,0.00,CLR,,0.22,0.0,WeatherDisplay:10.37,2013-11-04 02:21:00,
2013-11-04 03:26:00,44.1,42.2,29.91,SW,225,2.9,2.9,93,0.00,CLR,,0.22,0.0,WeatherDisplay:10.37,2013-11-04 02:26:00,
2013-11-04 03:31:00,44.2,42.3,29.91,SSW,202,2.3,2.3,93,0.00,CLR,,0.22,0.0,WeatherDisplay:10.37,2013-11-04 02:31:00,
2013-11-04 03:36:00,44.4,42.5,29.91,South,180,0.0,0.9,93,0.00,CLR,,0.22,0.0,WeatherDisplay:10.37,2013-11-04 02:36:00,
2013-11-04 03:41:00,44.4,42.5,29.91,SSW,202,2.2,2.2,93,0.00,CLR,,0.22,0.0,WeatherDisplay:10.37,2013-11-04 02:41:00,
2013-11-04 03:46:00,44.4,42.5,29.91,SW,225,3.5,3.5,93,0.00,CLR,,0.22,0.0,WeatherDisplay:10.37,2013-11-04 02:46:00,
2013-11-04 03:51:00,44.6,42.4,29.91,SSW,202,1.1,1.1,92,0.00,CLR,,0.22,0.0,WeatherDisplay:10.37,2013-11-04 02:51:00,
2013-11-04 03:56:00,44.6,42.4,29.91,SSW,202,2.3,2.3,92,0.00,CLR,,0.22,0.0,WeatherDisplay:10.37,2013-11-04 02:56:00,
2013-11-04 04:01:00,44.6,42.4,29.91,WSW,248,3.5,3.5,92,0.00,CLR,,0.22,0.0,WeatherDisplay:10.37,2013-11-04 03:01:00,
2013-11-04 04:06:00,44.8,42.6,29.94,SSW,202,3.1,3.1,92,0.00,CLR,,0.22,0.0,WeatherDisplay:10.37,2013-11-04 03:06:00,
2013-11-04 04:11:00,44.8,42.6,29.94,WSW,248,3.5,3.5,92,0.00,CLR,,0.22,0.0,WeatherDisplay:10.37,2013-11-04 03:11:00,
2013-11-04 04:16:00,45.0,42.8,29.94,SW,225,0.0,0.0,92,0.00,CLR,,0.22,0.0,WeatherDisplay:10.37,2013-11-04 03:16:00,
2013-11-04 04:21:00,45.1,43.0,29.91,WSW,248,1.1,1.4,92,0.00,CLR,,0.22,0.0,WeatherDisplay:10.37,2013-11-04 03:21:00,
2013-11-04 04:26:00,45.1,43.0,29.91,WSW,248,0.0,0.0,92,0.00,CLR,,0.22,0.0,WeatherDisplay:10.37,2013-11-04 03:26:00,
2013-11-04 04:31:00,45.1,43.0,29.91,WSW,248,0.0,0.0,92,0.00,CLR,,0.22,0.0,WeatherDisplay:10.37,2013-11-04 03:31:00,
2013-11-04 04:36:00,45.1,43.0,29.91,WSW,248,1.1,1.1,92,0.00,CLR,,0.22,0.0,WeatherDisplay:10.37,2013-11-04 03:36:00,
2013-11-04 04:41:00,45.0,42.8,29.91,WSW,248,2.3,2.3,92,0.00,CLR,,0.22,0.0,WeatherDisplay:10.37,2013-11-04 03:41:00,
2013-11-04 04:46:00,44.8,42.6,29.91,WSW,248,2.3,2.3,92,0.00,CLR,,0.22,0.0,WeatherDisplay:10.37,2013-11-04 03:46:00,
2013-11-04 04:51:00,44.6,42.4,29.91,SW,225,1.1,0.0,92,0.00,CLR,,0.22,0.0,WeatherDisplay:10.37,2013-11-04 03:51:00,
2013-11-04 04:56:00,44.4,42.2,29.91,SW,225,2.3,2.3,92,0.00,CLR,,0.22,0.0,WeatherDisplay:10.37,2013-11-04 03:56:00,
2013-11-04 05:01:00,44.2,42.1,29.91,SSW,202,1.1,0.0,92,0.00,CLR,,0.22,0.0,WeatherDisplay:10.37,2013-11-04 04:01:00,
2013-11-04 05:06:00,44.1,41.9,29.91,SSW,202,2.0,2.0,92,0.00,CLR,,0.22,0.0,WeatherDisplay:10.37,2013-11-04 04:06:00,
2013-11-04 05:11:00,43.9,41.7,29.91,SW,225,2.3,2.3,92,0.00,CLR,,0.22,0.0,WeatherDisplay:10.37,2013-11-04 04:11:00,
2013-11-04 05:16:00,43.7,41.8,29.91,SSW,202,2.3,2.3,93,0.00,CLR,,0.22,0.0,WeatherDisplay:10.37,2013-11-04 04:16:00,
2013-11-04 05:21:00,43.5,41.6,29.91,SSW,202,2.3,2.3,93,0.00,CLR,,0.22,0.0,WeatherDisplay:10.37,2013-11-04 04:21:00,
2013-11-04 05:26:00,43.5,41.6,29.91,WSW,248,2.3,2.3,93,0.00,CLR,,0.22,0.0,WeatherDisplay:10.37,2013-11-04 04:26:00,
2013-11-04 05:31:00,43.3,41.5,29.88,WSW,248,0.0,0.0,93,0.00,CLR,,0.22,0.0,WeatherDisplay:10.37,2013-11-04 04:31:00,
2013-11-04 05:36:00,43.3,41.5,29.88,SSE,158,0.0,0.0,93,0.00,CLR,,0.22,0.0,WeatherDisplay:10.37,2013-11-04 04:36:00,
2013-11-04 05:41:00,43.0,41.1,29.88,SSE,158,0.0,0.0,93,0.00,CLR,,0.22,0.0,WeatherDisplay:10.37,2013-11-04 04:41:00,
2013-11-04 05:46:00,43.0,41.1,29.88,SSE,158,0.0,0.0,93,0.00,CLR,,0.22,0.0,WeatherDisplay:10.37,2013-11-04 04:46:00,
2013-11-04 05:51:00,42.8,40.9,29.88,West,270,0.0,0.0,93,0.00,CLR,,0.22,0.0,WeatherDisplay:10.37,2013-11-04 04:51:00,
2013-11-04 05:56:00,42.6,41.0,29.88,West,270,0.0,0.0,94,0.00,CLR,,0.22,0.0,WeatherDisplay:10.37,2013-11-04 04:56:00,
2013-11-04 06:01:00,42.4,40.8,29.88,West,270,0.0,0.0,94,0.00,CLR,,0.22,0.0,WeatherDisplay:10.37,2013-11-04 05:01:00,
2013-11-04 06:06:00,42.4,40.8,29.88,NNW,338,0.0,0.0,94,0.00,OVC,,0.22,0.0,WeatherDisplay:10.37,2013-11-04 05:06:00,
2013-11-04 06:11:00,42.4,40.8,29.88,ENE,68,0.9,0.0,94,0.00,OVC,,0.22,0.0,WeatherDisplay:10.37,2013-11-04 05:11:00,
2013-11-04 06:16:00,42.6,41.0,29.88,ENE,68,1.6,1.6,94,0.00,OVC,,0.22,0.0,WeatherDisplay:10.37,2013-11-04 05:16:00,
2013-11-04 06:21:00,42.6,41.3,29.88,NNE,22,0.0,0.0,95,0.00,OVC,,0.22,0.0,WeatherDisplay:10.37,2013-11-04 05:21:00,
2013-11-04 06:26:00,42.8,41.2,29.88,NNE,22,0.0,0.0,94,0.00,OVC,,0.22,0.0,WeatherDisplay:10.37,2013-11-04 05:26:00,
2013-11-04 06:31:00,42.8,41.5,29.88,NNE,22,0.0,0.0,95,0.00,OVC,,0.22,0.0,WeatherDisplay:10.37,2013-11-04 05:31:00,
2013-11-04 06:36:00,42.8,41.5,29.88,NNE,22,0.0,0.0,95,0.00,OVC,,0.22,0.0,WeatherDisplay:10.37,2013-11-04 05:36:00,
2013-11-04 06:41:00,42.8,41.5,29.88,NNE,22,0.0,0.0,95,0.00,OVC,,0.22,0.0,WeatherDisplay:10.37,2013-11-04 05:41:00,
2013-11-04 06:46:00,42.8,41.5,29.88,NNE,22,0.0,0.0,95,0.00,OVC,,0.22,0.0,WeatherDisplay:10.37,2013-11-04 05:46:00,
2013-11-04 06:51:00,43.0,41.6,29.88,SSW,202,2.3,2.3,95,0.00,OVC,,0.22,0.0,WeatherDisplay:10.37,2013-11-04 05:51:00,
2013-11-04 06:56:00,43.2,42.1,29.88,SSW,202,3.5,3.5,96,0.00,OVC,,0.22,0.0,WeatherDisplay:10.37,2013-11-04 05:56:00,
2013-11-04 07:01:00,43.3,42.3,29.88,WSW,248,2.4,2.4,96,0.00,OVC,,0.00,0.0,WeatherDisplay:10.37,2013-11-04 06:01:00,
2013-11-04 07:06:00,43.5,42.5,29.88,WSW,248,3.5,3.5,96,0.00,OVC,,0.00,0.0,WeatherDisplay:10.37,2013-11-04 06:06:00,
2013-11-04 07:11:00,43.7,42.6,29.88,SSW,202,2.4,2.4,96,0.00,OVC,,0.00,0.0,WeatherDisplay:10.37,2013-11-04 06:11:00,
2013-11-04 07:16:00,44.1,43.0,29.88,SSE,158,0.0,0.0,96,0.00,OVC,,0.00,0.0,WeatherDisplay:10.37,2013-11-04 06:16:00,
2013-11-04 07:21:00,44.2,43.2,29.88,SSE,158,2.0,0.0,96,0.00,OVC,,0.00,0.0,WeatherDisplay:10.37,2013-11-04 06:21:00,
2013-11-04 07:26:00,44.2,43.2,29.88,ESE,112,1.1,0.0,96,0.00,OVC,,0.00,0.0,WeatherDisplay:10.37,2013-11-04 06:26:00,
2013-11-04 07:31:00,44.2,43.2,29.88,WSW,248,0.0,0.0,96,0.00,OVC,,0.00,0.0,WeatherDisplay:10.37,2013-11-04 06:31:00,
2013-11-04 07:36:00,44.4,43.1,29.91,West,270,1.1,0.0,95,0.00,OVC,,0.00,0.0,WeatherDisplay:10.37,2013-11-04 06:36:00,
2013-11-04 07:41:00,44.6,43.3,29.91,West,270,0.0,0.0,95,0.00,OVC,,0.00,0.0,WeatherDisplay:10.37,2013-11-04 06:41:00,
2013-11-04 07:46:00,44.6,43.3,29.88,SSW,202,1.1,1.1,95,0.00,OVC,,0.00,0.0,WeatherDisplay:10.37,2013-11-04 06:46:00,
2013-11-04 07:51:00,44.8,43.4,29.88,West,270,0.0,0.0,95,0.00,OVC,,0.00,0.0,WeatherDisplay:10.37,2013-11-04 06:51:00,
2013-11-04 07:56:00,45.0,43.6,29.88,WSW,248,1.1,0.0,95,0.00,OVC,,0.00,0.0,WeatherDisplay:10.37,2013-11-04 06:56:00,
2013-11-04 08:01:00,45.1,43.8,29.88,SSW,202,0.0,0.0,95,0.00,OVC,,0.00,0.0,WeatherDisplay:10.37,2013-11-04 07:01:00,
2013-11-04 08:06:00,45.3,44.0,29.88,SSW,202,0.9,0.0,95,0.00,OVC,,0.00,0.0,WeatherDisplay:10.37,2013-11-04 07:06:00,
2013-11-04 08:11:00,45.5,43.9,29.88,SSW,202,1.1,0.0,94,0.00,OVC,,0.00,0.0,WeatherDisplay:10.37,2013-11-04 07:11:00,
2013-11-04 08:16:00,45.7,44.1,29.88,SSW,202,2.3,2.3,94,0.00,OVC,,0.00,0.0,WeatherDisplay:10.37,2013-11-04 07:16:00,
2013-11-04 08:21:00,46.0,44.4,29.88,WSW,248,0.0,0.0,94,0.00,OVC,,0.00,0.0,WeatherDisplay:10.37,2013-11-04 07:21:00,
2013-11-04 08:26:00,46.2,44.6,29.88,SSW,202,0.0,0.0,94,0.00,OVC,,0.00,0.0,WeatherDisplay:10.37,2013-11-04 07:26:00,
2013-11-04 08:31:00,46.4,44.8,29.88,SSW,202,2.3,2.3,94,0.00,OVC,,0.00,0.0,WeatherDisplay:10.37,2013-11-04 07:31:00,
2013-11-04 08:36:00,46.6,44.7,29.88,SSW,202,1.1,0.0,93,0.00,OVC,,0.00,0.0,WeatherDisplay:10.37,2013-11-04 07:36:00,
2013-11-04 08:41:00,46.8,44.8,29.88,WSW,248,1.4,1.4,93,0.00,OVC,,0.00,0.0,WeatherDisplay:10.37,2013-11-04 07:41:00,
2013-11-04 08:46:00,46.8,44.8,29.88,ENE,68,0.0,0.0,93,0.00,OVC,,0.00,0.0,WeatherDisplay:10.37,2013-11-04 07:46:00,
2013-11-04 08:51:00,46.9,45.0,29.88,South,180,2.3,2.3,93,0.00,OVC,,0.00,0.0,WeatherDisplay:10.37,2013-11-04 07:51:00,
2013-11-04 08:56:00,47.1,45.2,29.88,SSW,202,0.0,0.0,93,0.00,OVC,,0.00,0.0,WeatherDisplay:10.37,2013-11-04 07:56:00,
2013-11-04 09:01:00,47.3,45.1,29.88,SSW,202,2.3,2.3,92,0.00,OVC,,0.00,0.0,WeatherDisplay:10.37,2013-11-04 08:01:00,
2013-11-04 09:06:00,47.5,45.3,29.88,SSW,202,2.3,2.3,92,0.00,OVC,,0.00,0.0,WeatherDisplay:10.37,2013-11-04 08:06:00,
2013-11-04 09:11:00,47.7,45.5,29.88,SSW,202,2.3,2.3,92,0.00,OVC,,0.00,0.0,WeatherDisplay:10.37,2013-11-04 08:11:00,
2013-11-04 09:16:00,47.7,45.2,29.85,North,0,1.1,0.0,91,0.00,OVC,,0.00,0.0,WeatherDisplay:10.37,2013-11-04 08:16:00,
2013-11-04 09:21:00,47.8,45.3,29.85,WSW,248,2.3,2.3,91,0.00,OVC,,0.00,0.0,WeatherDisplay:10.37,2013-11-04 08:21:00,
2013-11-04 09:26:00,48.0,45.5,29.85,SSW,202,2.3,2.3,91,0.00,OVC,,0.00,0.0,WeatherDisplay:10.37,2013-11-04 08:26:00,
2013-11-04 09:31:00,48.0,45.5,29.88,SSE,158,2.3,2.3,91,0.00,OVC,,0.00,0.0,WeatherDisplay:10.37,2013-11-04 08:31:00,
2013-11-04 09:36:00,48.2,45.4,29.88,SSW,202,2.3,0.0,90,0.00,OVC,,0.00,0.0,WeatherDisplay:10.37,2013-11-04 08:36:00,
2013-11-04 09:41:00,48.2,45.4,29.88,SW,225,3.5,3.5,90,0.00,OVC,,0.00,0.0,WeatherDisplay:10.37,2013-11-04 08:41:00,
2013-11-04 09:46:00,48.4,45.6,29.85,WSW,248,1.6,1.6,90,0.00,OVC,,0.00,0.0,WeatherDisplay:10.37,2013-11-04 08:46:00,
2013-11-04 09:51:00,48.7,45.9,29.85,SSW,202,4.6,4.6,90,0.00,OVC,,0.00,0.0,WeatherDisplay:10.37,2013-11-04 08:51:00,
2013-11-04 09:56:00,48.7,45.6,29.85,SSE,158,3.5,3.5,89,0.00,OVC,,0.00,0.0,WeatherDisplay:10.37,2013-11-04 08:56:00,
2013-11-04 10:01:00,48.9,45.8,29.85,SW,225,2.3,2.3,89,0.00,OVC,,0.00,0.0,WeatherDisplay:10.37,2013-11-04 09:01:00,
2013-11-04 10:06:00,48.9,45.8,29.85,North,0,3.5,3.5,89,0.00,OVC,,0.00,0.0,WeatherDisplay:10.37,2013-11-04 09:06:00,
2013-11-04 10:11:00,48.9,45.5,29.85,SSW,202,3.1,3.1,88,0.00,OVC,,0.00,0.0,WeatherDisplay:10.37,2013-11-04 09:11:00,
2013-11-04 10:16:00,49.1,45.7,29.85,SW,225,3.5,3.5,88,0.00,OVC,,0.00,0.0,WeatherDisplay:10.37,2013-11-04 09:16:00,
2013-11-04 10:21:00,49.5,46.1,29.85,SSW,202,4.6,4.6,88,0.00,OVC,,0.00,0.0,WeatherDisplay:10.37,2013-11-04 09:21:00,
2013-11-04 10:26:00,49.8,46.1,29.85,SSE,158,3.5,3.5,87,0.00,OVC,,0.00,0.0,WeatherDisplay:10.37,2013-11-04 09:26:00,
2013-11-04 10:31:00,50.2,46.2,29.83,WSW,248,3.5,3.5,86,0.00,OVC,,0.00,0.0,WeatherDisplay:10.37,2013-11-04 09:31:00,
2013-11-04 10:36:00,50.5,46.5,29.83,SSW,202,3.5,3.5,86,0.00,OVC,,0.00,0.0,WeatherDisplay:10.37,2013-11-04 09:36:00,
2013-11-04 10:41:00,50.7,46.4,29.83,SSW,202,4.6,4.6,85,0.00,OVC,,0.00,0.0,WeatherDisplay:10.37,2013-11-04 09:41:00,
2013-11-04 10:46:00,50.9,46.2,29.83,WSW,248,3.5,3.5,84,0.00,OVC,,0.00,0.0,WeatherDisplay:10.37,2013-11-04 09:46:00,
2013-11-04 10:51:00,50.9,45.9,29.83,SSW,202,3.5,3.5,83,0.00,OVC,,0.00,0.0,WeatherDisplay:10.37,2013-11-04 09:51:00,
2013-11-04 10:56:00,51.1,46.1,29.83,SW,225,2.3,2.3,83,0.00,OVC,,0.00,0.0,WeatherDisplay:10.37,2013-11-04 09:56:00,
2013-11-04 11:01:00,51.1,46.1,29.83,SSW,202,3.5,3.5,83,0.00,OVC,,0.00,0.0,WeatherDisplay:10.37,2013-11-04 10:01:00,
2013-11-04 11:06:00,51.1,46.1,29.83,SSE,158,3.5,3.5,83,0.00,OVC,,0.00,0.0,WeatherDisplay:10.37,2013-11-04 10:06:00,
2013-11-04 11:11:00,51.1,45.8,29.83,SSW,202,3.5,3.5,82,0.00,OVC,,0.00,0.0,WeatherDisplay:10.37,2013-11-04 10:11:00,
2013-11-04 11:16:00,51.1,45.8,29.83,South,180,4.6,4.6,82,0.00,OVC,,0.00,0.0,WeatherDisplay:10.37,2013-11-04 10:16:00,
2013-11-04 11:21:00,51.3,46.0,29.83,ESE,112,3.5,3.5,82,0.00,OVC,,0.00,0.0,WeatherDisplay:10.37,2013-11-04 10:21:00,
2013-11-04 11:26:00,51.3,46.0,29.83,SSW,202,4.7,4.7,82,0.00,OVC,,0.00,0.0,WeatherDisplay:10.37,2013-11-04 10:26:00,
2013-11-04 11:31:00,51.3,45.6,29.83,WSW,248,4.6,4.6,81,0.00,OVC,,0.00,0.0,WeatherDisplay:10.37,2013-11-04 10:31:00,
2013-11-04 11:36:00,51.3,45.6,29.83,NNW,338,4.6,4.6,81,0.00,OVC,,0.00,0.0,WeatherDisplay:10.37,2013-11-04 10:36:00,
2013-11-04 11:41:00,51.4,45.5,29.83,SSW,202,4.9,4.9,80,0.00,OVC,,0.00,0.0,WeatherDisplay:10.37,2013-11-04 10:41:00,
2013-11-04 11:46:00,51.4,45.8,29.80,SSW,202,4.6,4.6,81,0.00,OVC,,0.00,0.0,WeatherDisplay:10.37,2013-11-04 10:46:00,
2013-11-04 11:51:00,51.4,45.5,29.80,SSW,202,7.1,7.1,80,0.00,OVC,,0.00,0.0,WeatherDisplay:10.37,2013-11-04 10:51:00,
2013-11-04 11:56:00,51.4,45.1,29.80,SSE,158,3.1,3.1,79,0.00,OVC,,0.00,0.0,WeatherDisplay:10.37,2013-11-04 10:56:00,
2013-11-04 12:01:00,51.4,45.5,29.77,WSW,248,4.6,4.6,80,0.00,OVC,,0.00,0.0,WeatherDisplay:10.37,2013-11-04 11:01:00,
2013-11-04 12:06:00,51.4,45.5,29.77,SSE,158,3.6,3.6,80,0.00,OVC,,0.00,0.0,WeatherDisplay:10.37,2013-11-04 11:06:00,
2013-11-04 12:11:00,51.4,45.5,29.77,SSW,202,1.1,1.1,80,0.00,OVC,,0.00,0.0,WeatherDisplay:10.37,2013-11-04 11:11:00,
2013-11-04 12:14:00,51.3,45.3,29.77,ESE,112,2.9,2.9,80,0.00,OVC,,0.00,0.0,WeatherDisplay:10.37,2013-11-04 11:14:00,
2013-11-04 12:19:00,51.3,45.0,29.77,NNW,338,3.5,3.5,79,0.00,OVC,,0.00,0.0,WeatherDisplay:10.37,2013-11-04 11:19:00,
2013-11-04 12:22:00,51.1,44.8,29.77,SSE,158,3.6,3.6,79,0.00,OVC,,0.00,0.0,WeatherDisplay:10.37,2013-11-04 11:22:00,
2013-11-04 12:27:00,51.1,44.8,29.77,SSW,202,3.8,3.8,79,0.00,OVC,,0.00,0.0,WeatherDisplay:10.37,2013-11-04 11:27:00,
2013-11-04 12:32:00,50.7,44.8,29.77,WNW,292,2.3,2.3,80,0.00,OVC,,0.00,0.0,WeatherDisplay:10.37,2013-11-04 11:32:00,
2013-11-04 12:37:00,50.5,44.6,29.77,SSW,202,2.3,0.0,80,0.00,OVC,,0.00,0.0,WeatherDisplay:10.37,2013-11-04 11:37:00,
2013-11-04 12:42:00,50.5,44.9,29.77,ENE,68,2.3,2.3,81,0.00,OVC,,0.00,0.0,WeatherDisplay:10.37,2013-11-04 11:42:00,
2013-11-04 12:47:00,50.4,44.7,29.77,SSW,202,2.3,2.3,81,0.00,OVC,,0.00,0.0,WeatherDisplay:10.37,2013-11-04 11:47:00,
2013-11-04 12:52:00,50.5,44.9,29.77,ESE,112,2.3,2.3,81,0.00,OVC,,0.00,0.0,WeatherDisplay:10.37,2013-11-04 11:52:00,
2013-11-04 12:57:00,50.7,45.1,29.77,WNW,292,1.1,1.4,81,0.00,OVC,,0.00,0.0,WeatherDisplay:10.37,2013-11-04 11:57:00,
2013-11-04 13:02:00,51.1,45.5,29.77,SSW,202,3.5,3.5,81,0.00,OVC,,0.00,0.0,WeatherDisplay:10.37,2013-11-04 12:02:00,
2013-11-04 13:07:00,51.3,45.3,29.77,WSW,248,2.3,2.3,80,0.00,OVC,,0.00,0.0,WeatherDisplay:10.37,2013-11-04 12:07:00,
2013-11-04 13:12:00,51.6,45.3,29.77,ESE,112,2.3,2.4,79,0.00,OVC,,0.00,0.0,WeatherDisplay:10.37,2013-11-04 12:12:00,
2013-11-04 13:17:00,51.6,45.3,29.74,SSW,202,4.6,4.6,79,0.00,OVC,,0.00,0.0,WeatherDisplay:10.37,2013-11-04 12:17:00,
2013-11-04 13:22:00,51.8,44.8,29.74,SSE,158,3.5,3.5,77,0.00,OVC,,0.00,0.0,WeatherDisplay:10.37,2013-11-04 12:22:00,
2013-11-04 13:27:00,52.0,44.6,29.74,NNW,338,4.6,4.6,76,0.00,OVC,,0.00,0.0,WeatherDisplay:10.37,2013-11-04 12:27:00,
2013-11-04 13:32:00,52.0,44.3,29.74,SSW,202,3.5,3.5,75,0.00,OVC,,0.00,0.0,WeatherDisplay:10.37,2013-11-04 12:32:00,
2013-11-04 13:37:00,52.0,44.3,29.74,SW,225,2.3,2.4,75,0.00,OVC,,0.00,0.0,WeatherDisplay:10.37,2013-11-04 12:37:00,
2013-11-04 13:42:00,51.8,44.1,29.74,South,180,2.3,2.4,75,0.00,OVC,,0.00,0.0,WeatherDisplay:10.37,2013-11-04 12:42:00,
2013-11-04 13:47:00,51.8,43.8,29.71,SSE,158,2.6,2.6,74,0.00,OVC,,0.00,0.0,WeatherDisplay:10.37,2013-11-04 12:47:00,
2013-11-04 13:52:00,51.8,43.8,29.71,SSW,202,4.6,4.6,74,0.00,OVC,,0.00,0.0,WeatherDisplay:10.37,2013-11-04 12:52:00,
2013-11-04 13:57:00,52.0,43.9,29.71,SSW,202,4.6,4.6,74,0.00,OVC,,0.00,0.0,WeatherDisplay:10.37,2013-11-04 12:57:00,
2013-11-04 14:02:00,51.8,43.4,29.71,South,180,3.6,3.6,73,0.00,OVC,,0.00,0.0,WeatherDisplay:10.37,2013-11-04 13:02:00,
2013-11-04 14:07:00,51.8,43.4,29.71,ESE,112,5.8,5.8,73,0.00,OVC,,0.00,0.0,WeatherDisplay:10.37,2013-11-04 13:07:00,
2013-11-04 14:12:00,51.8,43.4,29.71,SSW,202,4.6,4.6,73,0.00,OVC,,0.00,0.0,WeatherDisplay:10.37,2013-11-04 13:12:00,
2013-11-04 14:17:00,51.6,43.6,29.71,WSW,248,4.6,4.6,74,0.00,OVC,,0.00,0.0,WeatherDisplay:10.37,2013-11-04 13:17:00,
2013-11-04 14:22:00,51.6,43.6,29.71,South,180,4.6,4.6,74,0.00,OVC,,0.00,0.0,WeatherDisplay:10.37,2013-11-04 13:22:00,
2013-11-04 14:27:00,51.6,43.6,29.71,NW,315,5.8,5.8,74,0.00,OVC,,0.00,0.0,WeatherDisplay:10.37,2013-11-04 13:27:00,
2013-11-04 14:32:00,51.6,43.6,29.71,NNW,338,2.3,2.3,74,0.00,OVC,,0.00,0.0,WeatherDisplay:10.37,2013-11-04 13:32:00,
2013-11-04 14:37:00,51.6,43.6,29.71,WNW,292,3.5,3.5,74,0.00,OVC,,0.00,0.0,WeatherDisplay:10.37,2013-11-04 13:37:00,
2013-11-04 14:42:00,51.6,43.6,29.71,SW,225,3.5,3.5,74,0.00,OVC,,0.00,0.0,WeatherDisplay:10.37,2013-11-04 13:42:00,
2013-11-04 14:47:00,51.6,43.6,29.68,WSW,248,3.5,3.5,74,0.00,OVC,,0.00,0.0,WeatherDisplay:10.37,2013-11-04 13:47:00,
2013-11-04 14:52:00,51.6,43.6,29.68,SW,225,5.8,5.8,74,0.00,OVC,,0.00,0.0,WeatherDisplay:10.37,2013-11-04 13:52:00,
2013-11-04 14:57:00,51.6,43.6,29.68,SW,225,4.6,4.6,74,0.00,OVC,,0.00,0.0,WeatherDisplay:10.37,2013-11-04 13:57:00,
2013-11-04 15:02:00,51.4,43.4,29.68,ENE,68,5.8,5.8,74,0.00,OVC,,0.00,0.0,WeatherDisplay:10.37,2013-11-04 14:02:00,
2013-11-04 15:07:00,51.4,43.4,29.68,SSW,202,5.8,5.8,74,0.00,OVC,,0.00,0.0,WeatherDisplay:10.37,2013-11-04 14:07:00,
2013-11-04 15:12:00,51.4,43.4,29.68,NE,45,4.6,4.6,74,0.00,OVC,,0.00,0.0,WeatherDisplay:10.37,2013-11-04 14:12:00,
2013-11-04 15:17:00,51.4,43.8,29.68,SSE,158,4.6,4.6,75,0.00,OVC,,0.00,0.0,WeatherDisplay:10.37,2013-11-04 14:17:00,
2013-11-04 15:22:00,51.4,43.8,29.68,West,270,1.1,0.0,75,0.00,OVC,,0.00,0.0,WeatherDisplay:10.37,2013-11-04 14:22:00,
2013-11-04 15:27:00,51.4,43.8,29.68,SE,135,5.8,5.8,75,0.00,OVC,,0.00,0.0,WeatherDisplay:10.37,2013-11-04 14:27:00,
2013-11-04 15:32:00,51.4,44.1,29.68,NNW,338,5.8,5.8,76,0.00,OVC,,0.00,0.0,WeatherDisplay:10.37,2013-11-04 14:32:00,
2013-11-04 15:37:00,51.4,44.1,29.68,ESE,112,4.6,4.6,76,0.00,OVC,,0.00,0.0,WeatherDisplay:10.37,2013-11-04 14:37:00,
2013-11-04 15:42:00,51.3,44.3,29.68,SSW,202,3.6,3.6,77,0.00,OVC,,0.00,0.0,WeatherDisplay:10.37,2013-11-04 14:42:00,
2013-11-04 15:47:00,51.3,44.3,29.68,SSE,158,4.6,4.6,77,0.00,OVC,,0.00,0.0,WeatherDisplay:10.37,2013-11-04 14:47:00,
2013-11-04 15:52:00,51.3,44.6,29.68,SW,225,3.5,3.5,78,0.00,OVC,,0.00,0.0,WeatherDisplay:10.37,2013-11-04 14:52:00,
2013-11-04 15:57:00,51.1,44.8,29.68,WSW,248,2.3,2.4,79,0.00,OVC,,0.00,0.0,WeatherDisplay:10.37,2013-11-04 14:57:00,
2013-11-04 16:02:00,51.1,44.8,29.68,NNE,22,4.6,4.6,79,0.00,OVC,,0.00,0.0,WeatherDisplay:10.37,2013-11-04 15:02:00,
2013-11-04 16:07:00,50.9,44.9,29.65,SSW,202,3.5,3.5,80,0.00,OVC,,0.00,0.0,WeatherDisplay:10.37,2013-11-04 15:07:00,
2013-11-04 16:12:00,50.9,45.3,29.65,SSW,202,3.5,3.5,81,0.00,OVC,,0.00,0.0,WeatherDisplay:10.37,2013-11-04 15:12:00,
2013-11-04 16:17:00,50.9,45.3,29.62,SSW,202,4.0,4.0,81,0.00,OVC,,0.00,0.0,WeatherDisplay:10.37,2013-11-04 15:17:00,
2013-11-04 16:22:00,50.7,45.1,29.62,SSE,158,3.8,3.8,81,0.00,OVC,,0.00,0.0,WeatherDisplay:10.37,2013-11-04 15:22:00,
2013-11-04 16:27:00,50.7,45.4,29.62,SSW,202,2.3,2.3,82,0.00,OVC,,0.00,0.0,WeatherDisplay:10.37,2013-11-04 15:27:00,
2013-11-04 16:32:00,50.5,45.2,29.65,SSW,202,3.5,3.5,82,0.00,OVC,,0.00,0.0,WeatherDisplay:10.37,2013-11-04 15:32:00,
2013-11-04 16:37:00,50.5,45.6,29.65,SSW,202,3.5,3.5,83,0.00,OVC,,0.00,0.0,WeatherDisplay:10.37,2013-11-04 15:37:00,
2013-11-04 16:42:00,50.4,45.4,29.65,SSE,158,2.3,2.6,83,0.00,OVC,,0.00,0.0,WeatherDisplay:10.37,2013-11-04 15:42:00,
2013-11-04 16:47:00,50.4,45.4,29.65,SSW,202,3.5,3.5,83,0.00,OVC,,0.00,0.0,WeatherDisplay:10.37,2013-11-04 15:47:00,
2013-11-04 16:52:00,50.4,45.7,29.65,SW,225,2.3,2.6,84,0.00,CLR,,0.00,0.0,WeatherDisplay:10.37,2013-11-04 15:52:00,
2013-11-04 16:57:00,50.2,45.5,29.65,SW,225,4.6,4.6,84,0.00,CLR,,0.00,0.0,WeatherDisplay:10.37,2013-11-04 15:57:00,
2013-11-04 17:02:00,50.2,45.5,29.65,ESE,112,2.3,2.3,84,0.00,CLR,,0.00,0.0,WeatherDisplay:10.37,2013-11-04 16:02:00,
2013-11-04 17:07:00,50.2,45.8,29.65,SSW,202,2.3,2.3,85,0.00,CLR,,0.00,0.0,WeatherDisplay:10.37,2013-11-04 16:07:00,
2013-11-04 17:12:00,50.2,45.8,29.65,SSW,202,2.9,2.9,85,0.00,CLR,,0.00,0.0,WeatherDisplay:10.37,2013-11-04 16:12:00,
2013-11-04 17:17:00,50.2,45.8,29.65,SE,135,2.3,2.3,85,0.00,CLR,,0.00,0.0,WeatherDisplay:10.37,2013-11-04 16:17:00,
2013-11-04 17:22:00,50.2,46.2,29.65,East,90,3.5,3.5,86,0.00,CLR,,0.00,0.0,WeatherDisplay:10.37,2013-11-04 16:22:00,
2013-11-04 17:27:00,50.2,46.2,29.65,ESE,112,4.6,4.6,86,0.00,CLR,,0.00,0.0,WeatherDisplay:10.37,2013-11-04 16:27:00,
2013-11-04 17:32:00,50.2,46.2,29.65,WNW,292,2.3,2.3,86,0.00,CLR,,0.00,0.0,WeatherDisplay:10.37,2013-11-04 16:32:00,
2013-11-04 17:37:00,50.2,46.2,29.65,ENE,68,2.3,2.3,86,0.00,CLR,,0.00,0.0,WeatherDisplay:10.37,2013-11-04 16:37:00,
2013-11-04 17:42:00,50.0,46.3,29.65,SSW,202,2.2,2.2,87,0.00,CLR,,0.00,0.0,WeatherDisplay:10.37,2013-11-04 16:42:00,
2013-11-04 17:47:00,50.0,46.3,29.65,ENE,68,3.5,3.5,87,0.00,CLR,,0.00,0.0,WeatherDisplay:10.37,2013-11-04 16:47:00,
2013-11-04 17:52:00,50.0,46.3,29.62,ENE,68,2.3,2.3,87,0.00,CLR,,0.00,0.0,WeatherDisplay:10.37,2013-11-04 16:52:00,
2013-11-04 17:57:00,50.0,46.6,29.62,ESE,112,4.6,4.6,88,0.00,CLR,,0.00,0.0,WeatherDisplay:10.37,2013-11-04 16:57:00,
2013-11-04 18:02:00,50.0,46.6,29.62,ESE,112,5.8,5.8,88,0.00,CLR,,0.00,0.0,WeatherDisplay:10.37,2013-11-04 17:02:00,
2013-11-04 18:07:00,50.0,46.6,29.62,WSW,248,1.1,1.1,88,0.00,CLR,,0.00,0.0,WeatherDisplay:10.37,2013-11-04 17:07:00,
2013-11-04 18:12:00,50.0,46.6,29.62,SSE,158,2.3,2.3,88,0.00,CLR,,0.00,0.0,WeatherDisplay:10.37,2013-11-04 17:12:00,
2013-11-04 18:17:00,50.0,46.9,29.62,SSW,202,2.3,2.3,89,0.00,CLR,,0.00,0.0,WeatherDisplay:10.37,2013-11-04 17:17:00,
2013-11-04 18:22:00,50.0,46.9,29.62,SSE,158,2.4,2.4,89,0.00,CLR,,0.00,0.0,WeatherDisplay:10.37,2013-11-04 17:22:00,
2013-11-04 18:27:00,50.0,46.9,29.62,SSW,202,4.6,4.6,89,0.00,CLR,,0.00,0.0,WeatherDisplay:10.37,2013-11-04 17:27:00,
2013-11-04 18:32:00,50.0,47.2,29.62,SSW,202,2.3,0.0,90,0.00,CLR,,0.00,0.0,WeatherDisplay:10.37,2013-11-04 17:32:00,
2013-11-04 18:37:00,50.0,47.2,29.62,ENE,68,0.9,0.0,90,0.00,CLR,,0.00,0.0,WeatherDisplay:10.37,2013-11-04 17:37:00,
2013-11-04 18:42:00,50.0,47.2,29.62,ENE,68,2.3,2.3,90,0.00,CLR,,0.00,0.0,WeatherDisplay:10.37,2013-11-04 17:42:00,
2013-11-04 18:47:00,50.0,47.2,29.62,East,90,3.5,3.5,90,0.00,CLR,,0.00,0.0,WeatherDisplay:10.37,2013-11-04 17:47:00,
2013-11-04 18:52:00,50.2,47.7,29.62,ESE,112,2.3,2.3,91,0.00,CLR,,0.00,0.0,WeatherDisplay:10.37,2013-11-04 17:52:00,
2013-11-04 18:57:00,50.2,47.7,29.62,ESE,112,2.2,2.2,91,0.00,CLR,,0.00,0.0,WeatherDisplay:10.37,2013-11-04 17:57:00,
2013-11-04 19:02:00,50.2,47.7,29.62,SSE,158,2.3,0.0,91,0.00,CLR,,0.00,0.0,WeatherDisplay:10.37,2013-11-04 18:02:00,
2013-11-04 19:07:00,50.2,47.9,29.62,WSW,248,2.3,2.3,92,0.00,CLR,,0.00,0.0,WeatherDisplay:10.37,2013-11-04 18:07:00,
2013-11-04 19:12:00,50.2,47.9,29.62,ESE,112,2.3,2.3,92,0.00,CLR,,0.00,0.0,WeatherDisplay:10.37,2013-11-04 18:12:00,
2013-11-04 19:17:00,50.4,48.1,29.59,ESE,112,0.9,0.0,92,0.00,CLR,,0.00,0.0,WeatherDisplay:10.37,2013-11-04 18:17:00,
2013-11-04 19:22:00,50.4,48.1,29.59,WSW,248,0.0,0.0,92,0.00,CLR,,0.00,0.0,WeatherDisplay:10.37,2013-11-04 18:22:00,
2013-11-04 19:27:00,50.4,48.1,29.59,ESE,112,2.0,0.0,92,0.00,CLR,,0.00,0.0,WeatherDisplay:10.37,2013-11-04 18:27:00,
2013-11-04 19:32:00,50.5,48.6,29.59,ENE,68,2.6,2.6,93,0.00,CLR,,0.00,0.0,WeatherDisplay:10.37,2013-11-04 18:32:00,
2013-11-04 19:37:00,50.5,48.6,29.59,SSW,202,2.3,2.3,93,0.00,CLR,,0.00,0.0,WeatherDisplay:10.37,2013-11-04 18:37:00,
2013-11-04 19:42:00,50.5,48.6,29.59,ENE,68,2.3,0.0,93,0.00,CLR,,0.00,0.0,WeatherDisplay:10.37,2013-11-04 18:42:00,
2013-11-04 19:47:00,50.7,48.8,29.59,ESE,112,2.3,2.3,93,0.00,CLR,,0.00,0.0,WeatherDisplay:10.37,2013-11-04 18:47:00,
2013-11-04 19:52:00,50.7,48.8,29.59,ESE,112,2.3,2.3,93,0.00,CLR,,0.00,0.0,WeatherDisplay:10.37,2013-11-04 18:52:00,
2013-11-04 19:57:00,50.7,48.8,29.59,SSE,158,2.3,2.3,93,0.00,CLR,,0.00,0.0,WeatherDisplay:10.37,2013-11-04 18:57:00,
2013-11-04 20:02:00,50.7,48.8,29.59,WSW,248,2.3,2.3,93,0.00,CLR,,0.00,0.0,WeatherDisplay:10.37,2013-11-04 19:02:00,
2013-11-04 20:07:00,50.7,48.8,29.59,WNW,292,2.3,0.0,93,0.00,CLR,,0.00,0.0,WeatherDisplay:10.37,2013-11-04 19:07:00,
2013-11-04 20:12:00,50.7,48.8,29.59,ENE,68,2.3,2.3,93,0.00,CLR,,0.00,0.0,WeatherDisplay:10.37,2013-11-04 19:12:00,
2013-11-04 20:17:00,50.7,48.8,29.59,NNW,338,2.4,2.4,93,0.00,CLR,,0.00,0.0,WeatherDisplay:10.37,2013-11-04 19:17:00,
2013-11-04 20:22:00,50.7,48.8,29.59,NNW,338,2.3,2.3,93,0.00,CLR,,0.00,0.0,WeatherDisplay:10.37,2013-11-04 19:22:00,
2013-11-04 20:27:00,50.5,48.9,29.59,ESE,112,1.1,1.1,94,0.00,CLR,,0.00,0.0,WeatherDisplay:10.37,2013-11-04 19:27:00,
2013-11-04 20:32:00,50.5,48.9,29.59,South,180,1.1,1.1,94,0.00,CLR,,0.00,0.0,WeatherDisplay:10.37,2013-11-04 19:32:00,
2013-11-04 20:37:00,50.5,48.9,29.59,WSW,248,2.3,0.0,94,0.00,CLR,,0.00,0.0,WeatherDisplay:10.37,2013-11-04 19:37:00,
2013-11-04 20:42:00,50.5,48.9,29.59,WSW,248,3.1,3.1,94,0.00,CLR,,0.00,0.0,WeatherDisplay:10.37,2013-11-04 19:42:00,
2013-11-04 20:47:00,50.5,48.9,29.59,SSW,202,1.1,1.1,94,0.00,CLR,,0.00,0.0,WeatherDisplay:10.37,2013-11-04 19:47:00,
2013-11-04 20:52:00,50.5,48.9,29.59,ESE,112,1.4,0.0,94,0.00,CLR,,0.00,0.0,WeatherDisplay:10.37,2013-11-04 19:52:00,
2013-11-04 20:57:00,50.5,48.9,29.59,SSE,158,2.3,2.3,94,0.00,CLR,,0.00,0.0,WeatherDisplay:10.37,2013-11-04 19:57:00,
2013-11-04 21:02:00,50.5,48.9,29.59,WSW,248,2.3,2.3,94,0.00,CLR,,0.00,0.0,WeatherDisplay:10.37,2013-11-04 20:02:00,
2013-11-04 21:07:00,50.7,49.1,29.59,WSW,248,2.4,2.4,94,0.00,CLR,,0.00,0.0,WeatherDisplay:10.37,2013-11-04 20:07:00,
2013-11-04 21:12:00,50.7,49.1,29.59,South,180,3.5,3.5,94,0.00,CLR,,0.00,0.0,WeatherDisplay:10.37,2013-11-04 20:12:00,